This is the latest recevied weather packets stored in our database for station/object SV4JYD-14. If no packets are shown the sender has not sent any weather packets the latest 10 day(s).
| Time | Temp. | Humidity | Pressure | Rain* | Wind** | Luminosity | Snow |
|---|---|---|---|---|---|---|---|
| 1778192129 | 16.67° C | 55% | 1019 hPa | 0 mm | - | - | - |
| 1778191229 | 16.67° C | 55% | 1019 hPa | 0 mm | - | - | - |
| 1778190329 | 17.22° C | 54% | 1019 hPa | 0 mm | - | - | - |
| 1778189429 | 17.78° C | 53% | 1019 hPa | 0 mm | - | - | - |
| 1778188528 | 17.78° C | 52% | 1019 hPa | 0 mm | - | - | - |
| 1778187628 | 17.78° C | 52% | 1019 hPa | 0 mm | - | - | - |
| 1778186728 | 17.78° C | 52% | 1019 hPa | 0 mm | - | - | - |
| 1778185828 | 18.33° C | 49% | 1019 hPa | 0 mm | - | - | - |
| 1778184927 | 18.89° C | 49% | 1019 hPa | 0 mm | - | - | - |
| 1778184027 | 20° C | 46% | 1019 hPa | 0 mm | - | - | - |
| 1778183127 | 20.56° C | 42% | 1019 hPa | 0 mm | - | - | - |
| 1778182227 | 21.67° C | 37% | 1019 hPa | 0 mm | - | - | - |
| 1778181326 | 21.67° C | 37% | 1019 hPa | 0 mm | - | - | - |
| 1778180426 | 21.67° C | 40% | 1019 hPa | 0 mm | - | - | - |
| 1778179526 | 20.56° C | 44% | 1019 hPa | 0 mm | - | - | - |
| 1778178626 | 21.11° C | 38% | 1019 hPa | 0 mm | - | - | - |
| 1778177726 | 21.11° C | 41% | 1019 hPa | 0 mm | - | - | - |
| 1778176825 | 20.56° C | 54% | 1018 hPa | 0 mm | - | - | - |
| 1778175925 | 22.22° C | 40% | 1018 hPa | 0 mm | - | - | - |
| 1778175025 | 22.22° C | 40% | 1018 hPa | 0 mm | - | - | - |
| 1778174125 | 23.33° C | 38% | 1018 hPa | 0 mm | - | - | - |
| 1778173224 | 23.33° C | 38% | 1018 hPa | 0 mm | - | - | - |
| 1778172324 | 23.33° C | 38% | 1018 hPa | 0 mm | - | - | - |
| 1778171424 | 23.33° C | 38% | 1018 hPa | 0 mm | - | - | - |
| 1778170524 | 23.33° C | 38% | 1018 hPa | 0 mm | - | - | - |
* Rain latest hour (hover to see other rain measurements)
** Current wind speed in m/s (hover to see current wind gust speed)